Wales, United Kingdom
Current Conditions -  °F | °C
As of 9:20 AM on Tuesday 21 Oct 2014 (Local Time) from EGCN Reporting Station
Scattered Clouds Scattered Clouds  
Wind Chill: 54°   Ceiling: Unl
Heat Index: 54°   Visibility: 6mi
Dew Point: 43°   Wind: 18mph
Humidity: 67%   Direction: 280°W
Pressure: 29.44"   Gusts: NA
Location:  53.34°N, 1.28°W
Report Text: EGCN 210820Z 28016KT 9999 SCT033 12/06 Q0997
Loading
Personal Weather Stations






























Interactive Weather Map
Tropical Storm Tracking
New forecast layout! Learn more

10-Day Weather Forecast

Advertisements
Track Severe Weather on mobile